Airfield :
LOGIN :

Register | Disclaimer

   EN    FR    IT 

 










Legend :    VFR   Marginal VFR   IFR   Intensive IFR   Very Intensive IFR
Visi :
Ceiling :
>= 8 km
>= 3000ft
5 to 8 km
1000 to 3000 ft
1500m to 5 km
500 to 1000 ft
800 to 1500m
200 to 500 ft
< 800m
< 200 ft
Symbols :   Thunderstorms  Fog  Heavy snow  Heavy precipitations  Wind > 20 kt
SIGMETs :     Misc.  Thunderstorms  Icing  Turbulence  Mountain Waves  Volcanic Ashes






- Airport Elevation : 135 ft
- IATA code : EDI


EGPH - Edinburgh

CURRENT METAR :
  • 250520Z 24005KT 9999 BKN018 16/14 Q1017

EXPIRED METARs :
  • 250450Z 24005KT 9999 BKN019 16/13 Q1017
  • 250420Z 26004KT 9999 BKN020 15/13 Q1016
  • 250350Z 26004KT 9999 FEW021 15/13 Q1016
  • 250320Z 27003KT 240V300 9999 FEW026 14/12 Q1016
  • 250250Z 28003KT 240V310 9999 FEW026 14/12 Q1016
  • 250220Z 34002KT CAVOK 15/13 Q1016
  • 250150Z VRB02KT CAVOK 16/13 Q1016
  • 250120Z 25004KT 230V320 CAVOK 16/13 Q1016
  • 250050Z VRB02KT CAVOK 16/13 Q1016
  • 250020Z 35003KT CAVOK 15/13 Q1016

TAF TAF EGPH
Valid from the 25 at 06:00 until the 26 at 06:00 UTC


250456Z 2506/2606 25004KT 9999 SCT020
BECMG 2513/2516 07010KT
TEMPO 2513/2519 6000 -RADZ BKN012
PROB30
TEMPO 2513/2519 4000 DZ BKN006
BECMG 2519/2522 BKN010
TEMPO 2519/2606 7000 BKN006
PROB30
TEMPO 2600/2606 BKN004
ATIS : +44 131 339 2823



MET'MAP, your aeronautical weather chart ! - Copyright ORBIFLY December 2007 - Disclaimer

ORBIFLY MET'MAP TEAM :

Programming & Development : Alexandra Zaïnal
Original concept : Baudouin d'Aumeries
Technical & hardware support : Manuel Goepfert
Assistance : Marc-Olivier Méhu




SOURCES & CREDITS :

   NOAA